sensor_id;sensor_type;location;lat;lon;timestamp;pressure;altitude;pressure_sealevel;temperature;humidity
62418;BME280;48456;54.242;10.280;2023-01-31T00:00:25;101273.94;;;1.21;100.00
62418;BME280;48456;54.242;10.280;2023-01-31T00:02:51;101274.00;;;1.23;100.00
62418;BME280;48456;54.242;10.280;2023-01-31T00:05:18;101278.34;;;1.22;100.00
62418;BME280;48456;54.242;10.280;2023-01-31T00:07:45;101262.72;;;1.22;100.00
62418;BME280;48456;54.242;10.280;2023-01-31T00:10:12;101269.63;;;1.22;100.00
62418;BME280;48456;54.242;10.280;2023-01-31T00:12:39;101267.94;;;1.22;100.00
62418;BME280;48456;54.242;10.280;2023-01-31T00:15:05;101276.63;;;1.23;100.00
62418;BME280;48456;54.242;10.280;2023-01-31T00:17:32;101280.97;;;1.22;100.00
62418;BME280;48456;54.242;10.280;2023-01-31T00:19:58;101279.84;;;1.17;100.00
62418;BME280;48456;54.242;10.280;2023-01-31T00:22:24;101277.91;;;1.11;100.00
62418;BME280;48456;54.242;10.280;2023-01-31T00:24:51;101285.50;;;1.07;100.00
62418;BME280;48456;54.242;10.280;2023-01-31T00:27:17;101292.31;;;1.03;100.00
62418;BME280;48456;54.242;10.280;2023-01-31T00:29:44;101280.78;;;0.98;100.00
62418;BME280;48456;54.242;10.280;2023-01-31T00:32:10;101297.31;;;0.98;100.00
62418;BME280;48456;54.242;10.280;2023-01-31T00:34:36;101305.00;;;0.95;100.00
62418;BME280;48456;54.242;10.280;2023-01-31T00:37:03;101298.00;;;0.94;100.00
62418;BME280;48456;54.242;10.280;2023-01-31T00:39:29;101301.59;;;0.96;100.00
62418;BME280;48456;54.242;10.280;2023-01-31T00:41:55;101312.19;;;1.01;100.00
62418;BME280;48456;54.242;10.280;2023-01-31T00:44:22;101312.34;;;1.04;100.00
62418;BME280;48456;54.242;10.280;2023-01-31T00:46:48;101319.16;;;1.02;100.00
62418;BME280;48456;54.242;10.280;2023-01-31T00:49:15;101324.34;;;1.00;100.00
62418;BME280;48456;54.242;10.280;2023-01-31T00:51:41;101338.16;;;0.99;100.00
62418;BME280;48456;54.242;10.280;2023-01-31T00:54:07;101348.75;;;1.02;100.00
62418;BME280;48456;54.242;10.280;2023-01-31T00:56:34;101349.63;;;1.03;100.00
62418;BME280;48456;54.242;10.280;2023-01-31T00:59:01;101357.53;;;1.05;100.00
62418;BME280;48456;54.242;10.280;2023-01-31T01:01:29;101353.88;;;1.01;100.00
62418;BME280;48456;54.242;10.280;2023-01-31T01:03:55;101342.28;;;0.94;100.00
62418;BME280;48456;54.242;10.280;2023-01-31T01:06:22;101345.66;;;0.92;100.00
62418;BME280;48456;54.242;10.280;2023-01-31T01:08:49;101348.72;;;0.83;100.00
62418;BME280;48456;54.242;10.280;2023-01-31T01:11:20;101343.50;;;0.81;100.00
62418;BME280;48456;54.242;10.280;2023-01-31T01:13:47;101339.16;;;0.82;100.00
62418;BME280;48456;54.242;10.280;2023-01-31T01:16:15;101340.06;;;0.82;100.00
62418;BME280;48456;54.242;10.280;2023-01-31T01:18:42;101345.53;;;0.88;100.00
62418;BME280;48456;54.242;10.280;2023-01-31T01:21:12;101341.22;;;0.89;100.00
62418;BME280;48456;54.242;10.280;2023-01-31T01:23:39;101347.59;;;0.96;100.00
62418;BME280;48456;54.242;10.280;2023-01-31T01:26:11;101358.75;;;0.93;100.00
62418;BME280;48456;54.242;10.280;2023-01-31T01:28:38;101358.75;;;0.93;100.00
62418;BME280;48456;54.242;10.280;2023-01-31T01:31:05;101362.91;;;0.89;100.00
62418;BME280;48456;54.242;10.280;2023-01-31T01:33:32;101360.38;;;0.91;100.00
62418;BME280;48456;54.242;10.280;2023-01-31T01:36:00;101360.31;;;0.89;100.00
62418;BME280;48456;54.242;10.280;2023-01-31T01:38:26;101363.81;;;0.90;100.00
62418;BME280;48456;54.242;10.280;2023-01-31T01:40:53;101375.16;;;0.90;100.00
62418;BME280;48456;54.242;10.280;2023-01-31T01:43:19;101369.50;;;1.01;100.00
62418;BME280;48456;54.242;10.280;2023-01-31T01:45:45;101359.44;;;1.09;100.00
62418;BME280;48456;54.242;10.280;2023-01-31T01:48:13;101377.19;;;1.17;100.00
62418;BME280;48456;54.242;10.280;2023-01-31T01:50:46;101376.69;;;1.26;100.00
62418;BME280;48456;54.242;10.280;2023-01-31T01:53:18;101374.28;;;1.31;100.00
62418;BME280;48456;54.242;10.280;2023-01-31T01:55:49;101370.78;;;1.31;100.00
62418;BME280;48456;54.242;10.280;2023-01-31T01:58:22;101375.03;;;1.28;100.00
62418;BME280;48456;54.242;10.280;2023-01-31T02:00:50;101373.81;;;1.20;100.00
62418;BME280;48456;54.242;10.280;2023-01-31T02:03:17;101379.72;;;1.16;100.00
62418;BME280;48456;54.242;10.280;2023-01-31T02:08:10;101367.25;;;1.09;100.00
62418;BME280;48456;54.242;10.280;2023-01-31T02:13:10;101367.44;;;1.13;100.00
62418;BME280;48456;54.242;10.280;2023-01-31T02:15:37;101372.59;;;1.12;100.00
62418;BME280;48456;54.242;10.280;2023-01-31T02:18:05;101366.44;;;1.10;100.00
62418;BME280;48456;54.242;10.280;2023-01-31T02:20:37;101374.25;;;1.10;100.00
62418;BME280;48456;54.242;10.280;2023-01-31T02:28:40;101371.91;;;1.16;100.00
62418;BME280;48456;54.242;10.280;2023-01-31T02:31:18;101369.97;;;1.12;100.00
62418;BME280;48456;54.242;10.280;2023-01-31T02:39:13;101379.09;;;1.22;100.00
62418;BME280;48456;54.242;10.280;2023-01-31T02:41:50;101386.28;;;1.27;100.00
62418;BME280;48456;54.242;10.280;2023-01-31T02:44:22;101386.00;;;1.21;100.00
62418;BME280;48456;54.242;10.280;2023-01-31T02:52:38;101380.63;;;1.16;100.00
62418;BME280;48456;54.242;10.280;2023-01-31T02:57:51;101384.16;;;1.19;100.00
62418;BME280;48456;54.242;10.280;2023-01-31T03:00:18;101378.16;;;1.20;100.00
62418;BME280;48456;54.242;10.280;2023-01-31T03:02:45;101375.72;;;1.24;100.00
62418;BME280;48456;54.242;10.280;2023-01-31T03:05:15;101358.38;;;1.25;100.00
62418;BME280;48456;54.242;10.280;2023-01-31T03:07:43;101358.38;;;1.25;100.00
62418;BME280;48456;54.242;10.280;2023-01-31T03:10:15;101348.78;;;1.24;100.00
62418;BME280;48456;54.242;10.280;2023-01-31T03:13:06;101347.06;;;1.24;100.00
62418;BME280;48456;54.242;10.280;2023-01-31T03:18:27;101353.63;;;1.36;100.00
62418;BME280;48456;54.242;10.280;2023-01-31T03:20:58;101353.69;;;1.37;100.00
62418;BME280;48456;54.242;10.280;2023-01-31T03:23:28;101355.59;;;1.41;100.00
62418;BME280;48456;54.242;10.280;2023-01-31T03:25:57;101362.75;;;1.46;100.00
62418;BME280;48456;54.242;10.280;2023-01-31T03:28:26;101364.72;;;1.51;100.00
62418;BME280;48456;54.242;10.280;2023-01-31T03:31:04;101361.44;;;1.57;100.00
62418;BME280;48456;54.242;10.280;2023-01-31T03:33:34;101365.09;;;1.61;100.00
62418;BME280;48456;54.242;10.280;2023-01-31T03:36:09;101364.31;;;1.63;100.00
62418;BME280;48456;54.242;10.280;2023-01-31T03:38:47;101367.88;;;1.65;100.00
62418;BME280;48456;54.242;10.280;2023-01-31T03:41:20;101374.91;;;1.66;100.00
62418;BME280;48456;54.242;10.280;2023-01-31T03:44:02;101361.88;;;1.68;100.00
62418;BME280;48456;54.242;10.280;2023-01-31T03:46:36;101364.41;;;1.65;100.00
62418;BME280;48456;54.242;10.280;2023-01-31T03:49:07;101353.81;;;1.62;100.00
62418;BME280;48456;54.242;10.280;2023-01-31T03:51:35;101350.22;;;1.58;100.00
62418;BME280;48456;54.242;10.280;2023-01-31T03:54:04;101364.81;;;1.54;100.00
62418;BME280;48456;54.242;10.280;2023-01-31T03:59:09;101355.78;;;1.46;100.00
62418;BME280;48456;54.242;10.280;2023-01-31T04:01:38;101360.00;;;1.42;100.00
62418;BME280;48456;54.242;10.280;2023-01-31T04:04:08;101351.84;;;1.35;100.00
62418;BME280;48456;54.242;10.280;2023-01-31T04:06:35;101353.31;;;1.28;100.00
62418;BME280;48456;54.242;10.280;2023-01-31T04:09:02;101354.94;;;1.26;100.00
62418;BME280;48456;54.242;10.280;2023-01-31T04:11:28;101347.97;;;1.25;100.00
62418;BME280;48456;54.242;10.280;2023-01-31T04:13:54;101355.91;;;1.28;100.00
62418;BME280;48456;54.242;10.280;2023-01-31T04:16:21;101350.63;;;1.26;100.00
62418;BME280;48456;54.242;10.280;2023-01-31T04:18:48;101353.16;;;1.25;100.00
62418;BME280;48456;54.242;10.280;2023-01-31T04:21:15;101341.84;;;1.24;100.00
62418;BME280;48456;54.242;10.280;2023-01-31T04:23:41;101351.41;;;1.24;100.00
62418;BME280;48456;54.242;10.280;2023-01-31T04:26:08;101347.00;;;1.23;100.00
62418;BME280;48456;54.242;10.280;2023-01-31T04:28:35;101347.00;;;1.23;100.00
62418;BME280;48456;54.242;10.280;2023-01-31T04:31:01;101341.00;;;1.25;100.00
62418;BME280;48456;54.242;10.280;2023-01-31T04:33:28;101340.47;;;1.33;100.00
62418;BME280;48456;54.242;10.280;2023-01-31T04:35:54;101339.00;;;1.39;100.00
62418;BME280;48456;54.242;10.280;2023-01-31T04:38:21;101349.69;;;1.46;100.00
62418;BME280;48456;54.242;10.280;2023-01-31T04:40:47;101350.78;;;1.51;100.00
62418;BME280;48456;54.242;10.280;2023-01-31T04:43:13;101351.84;;;1.56;100.00
62418;BME280;48456;54.242;10.280;2023-01-31T04:45:40;101358.91;;;1.59;100.00
62418;BME280;48456;54.242;10.280;2023-01-31T04:48:06;101375.69;;;1.65;100.00
62418;BME280;48456;54.242;10.280;2023-01-31T04:50:33;101375.75;;;1.67;100.00
62418;BME280;48456;54.242;10.280;2023-01-31T04:52:59;101367.25;;;1.71;100.00
62418;BME280;48456;54.242;10.280;2023-01-31T04:55:25;101365.59;;;1.73;100.00
62418;BME280;48456;54.242;10.280;2023-01-31T04:57:53;101375.13;;;1.73;100.00
62418;BME280;48456;54.242;10.280;2023-01-31T05:00:19;101374.31;;;1.74;100.00
62418;BME280;48456;54.242;10.280;2023-01-31T05:02:46;101382.25;;;1.77;100.00
62418;BME280;48456;54.242;10.280;2023-01-31T05:05:12;101381.50;;;1.79;100.00
62418;BME280;48456;54.242;10.280;2023-01-31T05:07:38;101378.06;;;1.80;100.00
62418;BME280;48456;54.242;10.280;2023-01-31T05:10:05;101368.50;;;1.81;100.00
62418;BME280;48456;54.242;10.280;2023-01-31T05:12:32;101359.63;;;1.76;100.00
62418;BME280;48456;54.242;10.280;2023-01-31T05:14:58;101357.72;;;1.72;100.00
62418;BME280;48456;54.242;10.280;2023-01-31T05:17:24;101358.47;;;1.69;100.00
62418;BME280;48456;54.242;10.280;2023-01-31T05:19:51;101350.59;;;1.67;100.00
62418;BME280;48456;54.242;10.280;2023-01-31T05:22:17;101344.47;;;1.67;100.00
62418;BME280;48456;54.242;10.280;2023-01-31T05:24:47;101344.47;;;1.67;100.00
62418;BME280;48456;54.242;10.280;2023-01-31T05:27:15;101337.47;;;1.66;100.00
62418;BME280;48456;54.242;10.280;2023-01-31T05:29:42;101343.53;;;1.65;100.00
62418;BME280;48456;54.242;10.280;2023-01-31T05:32:09;101340.09;;;1.66;100.00
62418;BME280;48456;54.242;10.280;2023-01-31T05:34:35;101344.47;;;1.67;100.00
62418;BME280;48456;54.242;10.280;2023-01-31T05:37:02;101335.88;;;1.69;100.00
62418;BME280;48456;54.242;10.280;2023-01-31T05:39:29;101341.22;;;1.73;100.00
62418;BME280;48456;54.242;10.280;2023-01-31T05:41:55;101336.91;;;1.73;100.00
62418;BME280;48456;54.242;10.280;2023-01-31T05:44:22;101330.94;;;1.76;100.00
62418;BME280;48456;54.242;10.280;2023-01-31T05:46:49;101330.16;;;1.78;100.00
62418;BME280;48456;54.242;10.280;2023-01-31T05:49:15;101323.19;;;1.79;100.00
62418;BME280;48456;54.242;10.280;2023-01-31T05:51:42;101323.19;;;1.79;100.00
62418;BME280;48456;54.242;10.280;2023-01-31T05:54:09;101322.31;;;1.78;100.00
62418;BME280;48456;54.242;10.280;2023-01-31T05:56:36;101328.31;;;1.76;100.00
62418;BME280;48456;54.242;10.280;2023-01-31T05:59:04;101318.72;;;1.75;100.00
62418;BME280;48456;54.242;10.280;2023-01-31T06:01:30;101318.53;;;1.70;100.00
62418;BME280;48456;54.242;10.280;2023-01-31T06:03:57;101324.50;;;1.67;100.00
62418;BME280;48456;54.242;10.280;2023-01-31T06:06:23;101318.31;;;1.65;100.00
62418;BME280;48456;54.242;10.280;2023-01-31T06:08:50;101319.16;;;1.64;100.00
62418;BME280;48456;54.242;10.280;2023-01-31T06:11:16;101316.47;;;1.63;100.00
62418;BME280;48456;54.242;10.280;2023-01-31T06:13:43;101319.16;;;1.64;100.00
62418;BME280;48456;54.242;10.280;2023-01-31T06:16:10;101318.25;;;1.64;100.00
62418;BME280;48456;54.242;10.280;2023-01-31T06:18:36;101315.59;;;1.62;100.00
62418;BME280;48456;54.242;10.280;2023-01-31T06:21:03;101303.50;;;1.64;100.00
62418;BME280;48456;54.242;10.280;2023-01-31T06:23:29;101294.91;;;1.67;100.00
62418;BME280;48456;54.242;10.280;2023-01-31T06:25:56;101284.59;;;1.70;100.00
62418;BME280;48456;54.242;10.280;2023-01-31T06:28:22;101269.91;;;1.72;100.00
62418;BME280;48456;54.242;10.280;2023-01-31T06:30:49;101271.78;;;1.76;100.00
62418;BME280;48456;54.242;10.280;2023-01-31T06:33:16;101264.94;;;1.78;100.00
62418;BME280;48456;54.242;10.280;2023-01-31T06:35:42;101256.41;;;1.83;100.00
62418;BME280;48456;54.242;10.280;2023-01-31T06:38:08;101259.16;;;1.87;100.00
62418;BME280;48456;54.242;10.280;2023-01-31T06:40:37;101261.78;;;1.87;100.00
62418;BME280;48456;54.242;10.280;2023-01-31T06:43:04;101253.25;;;1.91;100.00
62418;BME280;48456;54.242;10.280;2023-01-31T06:45:30;101252.53;;;1.95;100.00
62418;BME280;48456;54.242;10.280;2023-01-31T06:47:57;101250.94;;;1.99;100.00
62418;BME280;48456;54.242;10.280;2023-01-31T06:50:23;101254.56;;;2.03;100.00
62418;BME280;48456;54.242;10.280;2023-01-31T06:52:49;101252.06;;;2.06;100.00
62418;BME280;48456;54.242;10.280;2023-01-31T06:55:16;101252.13;;;2.07;100.00
62418;BME280;48456;54.242;10.280;2023-01-31T06:57:46;101252.22;;;2.11;100.00
62418;BME280;48456;54.242;10.280;2023-01-31T07:00:13;101240.06;;;2.11;100.00
62418;BME280;48456;54.242;10.280;2023-01-31T07:02:39;101240.13;;;2.13;100.00
62418;BME280;48456;54.242;10.280;2023-01-31T07:05:05;101247.91;;;2.11;100.00
62418;BME280;48456;54.242;10.280;2023-01-31T07:07:32;101240.13;;;2.13;100.00
62418;BME280;48456;54.242;10.280;2023-01-31T07:09:59;101243.59;;;2.12;100.00
62418;BME280;48456;54.242;10.280;2023-01-31T07:12:25;101246.25;;;2.13;100.00
62418;BME280;48456;54.242;10.280;2023-01-31T07:14:51;101238.47;;;2.15;100.00
62418;BME280;48456;54.242;10.280;2023-01-31T07:17:18;101232.50;;;2.17;100.00
62418;BME280;48456;54.242;10.280;2023-01-31T07:19:46;101225.59;;;2.19;100.00
62418;BME280;48456;54.242;10.280;2023-01-31T07:22:12;101223.94;;;2.22;100.00
62418;BME280;48456;54.242;10.280;2023-01-31T07:24:39;101223.19;;;2.26;100.00
62418;BME280;48456;54.242;10.280;2023-01-31T07:27:05;101219.84;;;2.30;100.00
62418;BME280;48456;54.242;10.280;2023-01-31T07:29:31;101218.22;;;2.32;100.00
62418;BME280;48456;54.242;10.280;2023-01-31T07:31:58;101208.81;;;2.37;100.00
62418;BME280;48456;54.242;10.280;2023-01-31T07:34:25;101208.94;;;2.40;100.00
62418;BME280;48456;54.242;10.280;2023-01-31T07:36:51;101202.16;;;2.45;100.00
62418;BME280;48456;54.242;10.280;2023-01-31T07:39:17;101192.69;;;2.49;100.00
62418;BME280;48456;54.242;10.280;2023-01-31T07:41:44;101185.03;;;2.54;100.00
62418;BME280;48456;54.242;10.280;2023-01-31T07:44:10;101181.63;;;2.56;100.00
62418;BME280;48456;54.242;10.280;2023-01-31T07:46:37;101170.44;;;2.60;100.00
62418;BME280;48456;54.242;10.280;2023-01-31T07:49:03;101157.56;;;2.65;100.00
62418;BME280;48456;54.242;10.280;2023-01-31T07:51:29;101153.31;;;2.69;100.00
62418;BME280;48456;54.242;10.280;2023-01-31T07:53:56;101160.31;;;2.70;100.00
62418;BME280;48456;54.242;10.280;2023-01-31T07:56:22;101158.72;;;2.73;100.00
62418;BME280;48456;54.242;10.280;2023-01-31T07:58:49;101149.19;;;2.76;100.00
62418;BME280;48456;54.242;10.280;2023-01-31T08:01:16;101135.38;;;2.80;100.00
62418;BME280;48456;54.242;10.280;2023-01-31T08:04:02;101128.56;;;2.83;100.00
62418;BME280;48456;54.242;10.280;2023-01-31T08:06:46;101126.03;;;2.86;100.00
62418;BME280;48456;54.242;10.280;2023-01-31T08:09:13;101116.47;;;2.87;100.00
62418;BME280;48456;54.242;10.280;2023-01-31T08:11:39;101111.34;;;2.90;100.00
62418;BME280;48456;54.242;10.280;2023-01-31T08:14:07;101113.16;;;2.93;100.00
62418;BME280;48456;54.242;10.280;2023-01-31T08:16:35;101110.63;;;2.94;100.00
62418;BME280;48456;54.242;10.280;2023-01-31T08:19:02;101112.44;;;2.97;100.00
62418;BME280;48456;54.242;10.280;2023-01-31T08:21:28;101101.97;;;2.97;100.00
62418;BME280;48456;54.242;10.280;2023-01-31T08:23:55;101088.84;;;2.95;100.00
62418;BME280;48456;54.242;10.280;2023-01-31T08:26:22;101089.72;;;2.94;100.00
62418;BME280;48456;54.242;10.280;2023-01-31T08:28:49;101100.00;;;2.90;100.00
62418;BME280;48456;54.242;10.280;2023-01-31T08:31:17;101092.06;;;2.86;100.00
62418;BME280;48456;54.242;10.280;2023-01-31T08:33:43;101091.06;;;2.83;100.00
62418;BME280;48456;54.242;10.280;2023-01-31T08:36:14;101096.19;;;2.80;100.00
62418;BME280;48456;54.242;10.280;2023-01-31T08:38:45;101091.81;;;2.79;100.00
62418;BME280;48456;54.242;10.280;2023-01-31T08:41:11;101080.41;;;2.77;100.00
62418;BME280;48456;54.242;10.280;2023-01-31T08:43:38;101083.81;;;2.74;100.00
62418;BME280;48456;54.242;10.280;2023-01-31T08:46:21;101063.66;;;2.70;100.00
62418;BME280;48456;54.242;10.280;2023-01-31T08:48:48;101068.88;;;2.70;100.00
62418;BME280;48456;54.242;10.280;2023-01-31T08:53:50;101052.41;;;2.72;100.00
62418;BME280;48456;54.242;10.280;2023-01-31T08:56:17;101049.81;;;2.72;100.00
62418;BME280;48456;54.242;10.280;2023-01-31T08:58:44;101039.34;;;2.72;100.00
62418;BME280;48456;54.242;10.280;2023-01-31T09:01:11;101033.31;;;2.73;100.00
62418;BME280;48456;54.242;10.280;2023-01-31T09:03:38;101021.16;;;2.76;100.00
62418;BME280;48456;54.242;10.280;2023-01-31T09:06:06;101021.22;;;2.77;100.00
62418;BME280;48456;54.242;10.280;2023-01-31T09:08:32;101017.81;;;2.80;100.00
62418;BME280;48456;54.242;10.280;2023-01-31T09:10:59;101007.53;;;2.84;100.00
62418;BME280;48456;54.242;10.280;2023-01-31T09:13:26;101009.28;;;2.85;100.00
62418;BME280;48456;54.242;10.280;2023-01-31T09:16:02;101002.28;;;2.84;100.00
62418;BME280;48456;54.242;10.280;2023-01-31T09:18:30;101004.97;;;2.86;100.00
62418;BME280;48456;54.242;10.280;2023-01-31T09:21:02;101002.41;;;2.88;100.00
62418;BME280;48456;54.242;10.280;2023-01-31T09:23:28;100994.56;;;2.88;100.00
62418;BME280;48456;54.242;10.280;2023-01-31T09:25:55;100992.81;;;2.88;100.00
62418;BME280;48456;54.242;10.280;2023-01-31T09:28:22;100994.56;;;2.89;100.00
62418;BME280;48456;54.242;10.280;2023-01-31T09:30:49;100988.53;;;2.90;100.00
62418;BME280;48456;54.242;10.280;2023-01-31T09:33:15;100988.56;;;2.92;100.00
62418;BME280;48456;54.242;10.280;2023-01-31T09:35:42;100979.00;;;2.92;100.00
62418;BME280;48456;54.242;10.280;2023-01-31T09:38:08;100977.28;;;2.93;100.00
62418;BME280;48456;54.242;10.280;2023-01-31T09:40:37;100978.16;;;2.93;100.00
62418;BME280;48456;54.242;10.280;2023-01-31T09:43:04;100975.59;;;2.95;100.00
62418;BME280;48456;54.242;10.280;2023-01-31T09:45:32;100964.25;;;2.94;100.00
62418;BME280;48456;54.242;10.280;2023-01-31T09:48:00;100961.72;;;2.97;100.00
62418;BME280;48456;54.242;10.280;2023-01-31T09:50:32;100953.97;;;3.01;100.00
62418;BME280;48456;54.242;10.280;2023-01-31T09:53:00;100948.81;;;3.02;100.00
62418;BME280;48456;54.242;10.280;2023-01-31T10:00:33;100928.03;;;3.07;100.00
62418;BME280;48456;54.242;10.280;2023-01-31T10:05:53;100920.22;;;3.08;100.00
62418;BME280;48456;54.242;10.280;2023-01-31T10:10:46;100910.69;;;3.10;100.00
62418;BME280;48456;54.242;10.280;2023-01-31T10:13:57;100902.00;;;3.11;100.00
62418;BME280;48456;54.242;10.280;2023-01-31T10:16:13;100899.44;;;3.13;100.00
62418;BME280;48456;54.242;10.280;2023-01-31T10:18:43;100893.47;;;3.17;100.00
62418;BME280;48456;54.242;10.280;2023-01-31T10:21:12;100886.63;;;3.22;100.00
62418;BME280;48456;54.242;10.280;2023-01-31T10:23:44;100883.16;;;3.23;100.00
62418;BME280;48456;54.242;10.280;2023-01-31T10:26:17;100878.00;;;3.27;100.00
62418;BME280;48456;54.242;10.280;2023-01-31T10:28:47;100876.22;;;3.24;100.00
62418;BME280;48456;54.242;10.280;2023-01-31T10:34:11;101152.56;;;3.27;100.00
62418;BME280;48456;54.242;10.280;2023-01-31T10:36:44;101190.13;;;3.29;100.00
62418;BME280;48456;54.242;10.280;2023-01-31T10:39:18;101219.84;;;3.32;100.00
62418;BME280;48456;54.242;10.280;2023-01-31T10:44:35;101294.22;;;3.41;100.00
62418;BME280;48456;54.242;10.280;2023-01-31T10:47:09;101327.44;;;3.43;100.00
62418;BME280;48456;54.242;10.280;2023-01-31T10:49:37;101352.00;;;3.48;100.00
62418;BME280;48456;54.242;10.280;2023-01-31T10:52:11;101380.91;;;3.51;100.00
62418;BME280;48456;54.242;10.280;2023-01-31T10:54:47;101394.88;;;3.52;100.00
62418;BME280;48456;54.242;10.280;2023-01-31T10:57:14;101419.34;;;3.54;100.00
62418;BME280;48456;54.242;10.280;2023-01-31T10:59:43;101437.78;;;3.57;100.00
62418;BME280;48456;54.242;10.280;2023-01-31T11:02:15;101455.38;;;3.61;100.00
62418;BME280;48456;54.242;10.280;2023-01-31T11:04:44;101473.00;;;3.67;100.00
62418;BME280;48456;54.242;10.280;2023-01-31T11:07:10;101493.28;;;3.73;100.00
62418;BME280;48456;54.242;10.280;2023-01-31T11:09:41;101496.88;;;3.76;100.00
62418;BME280;48456;54.242;10.280;2023-01-31T11:12:08;101518.91;;;3.83;100.00
62418;BME280;48456;54.242;10.280;2023-01-31T11:14:34;101525.13;;;3.87;100.00
62418;BME280;48456;54.242;10.280;2023-01-31T11:17:07;101534.00;;;3.90;100.00
62418;BME280;48456;54.242;10.280;2023-01-31T11:19:36;101535.00;;;3.94;100.00
62418;BME280;48456;54.242;10.280;2023-01-31T11:22:03;101543.84;;;3.98;100.00
62418;BME280;48456;54.242;10.280;2023-01-31T11:24:31;101542.31;;;4.05;100.00
62418;BME280;48456;54.242;10.280;2023-01-31T11:26:59;101544.13;;;4.06;100.00
62418;BME280;48456;54.242;10.280;2023-01-31T11:29:49;101529.28;;;4.06;100.00
62418;BME280;48456;54.242;10.280;2023-01-31T11:32:18;101533.72;;;4.09;100.00
62418;BME280;48456;54.242;10.280;2023-01-31T11:37:31;101495.72;;;4.20;100.00
62418;BME280;48456;54.242;10.280;2023-01-31T11:40:00;101498.50;;;4.25;100.00
62418;BME280;48456;54.242;10.280;2023-01-31T11:42:27;101500.38;;;4.29;100.00
62418;BME280;48456;54.242;10.280;2023-01-31T11:45:01;101492.56;;;4.31;100.00
62418;BME280;48456;54.242;10.280;2023-01-31T11:50:03;100753.22;;;4.36;100.00
62418;BME280;48456;54.242;10.280;2023-01-31T11:52:31;100852.78;;;4.38;100.00
62418;BME280;48456;54.242;10.280;2023-01-31T11:55:00;100845.00;;;4.41;100.00
62418;BME280;48456;54.242;10.280;2023-01-31T11:57:29;100852.06;;;4.45;100.00
62418;BME280;48456;54.242;10.280;2023-01-31T11:59:57;100859.09;;;4.48;100.00
62418;BME280;48456;54.242;10.280;2023-01-31T12:02:33;100860.03;;;4.50;100.00
62418;BME280;48456;54.242;10.280;2023-01-31T12:05:00;100833.88;;;4.53;100.00
62418;BME280;48456;54.242;10.280;2023-01-31T12:07:47;100818.19;;;4.54;100.00
62418;BME280;48456;54.242;10.280;2023-01-31T12:10:23;100805.13;;;4.56;100.00
62418;BME280;48456;54.242;10.280;2023-01-31T12:12:51;100792.06;;;4.58;100.00
62418;BME280;48456;54.242;10.280;2023-01-31T12:15:17;100779.88;;;4.60;100.00
62418;BME280;48456;54.242;10.280;2023-01-31T12:17:45;100778.19;;;4.62;100.00
62418;BME280;48456;54.242;10.280;2023-01-31T12:25:29;100747.66;;;4.65;100.00
62418;BME280;48456;54.242;10.280;2023-01-31T12:28:05;100730.28;;;4.69;100.00
62418;BME280;48456;54.242;10.280;2023-01-31T12:33:24;100719.00;;;4.75;100.00
62418;BME280;48456;54.242;10.280;2023-01-31T12:35:56;100716.47;;;4.78;100.00
62418;BME280;48456;54.242;10.280;2023-01-31T12:49:16;100704.34;;;4.85;100.00
62418;BME280;48456;54.242;10.280;2023-01-31T12:52:02;100710.53;;;4.90;100.00
62418;BME280;48456;54.242;10.280;2023-01-31T12:54:37;100712.38;;;4.94;100.00
62418;BME280;48456;54.242;10.280;2023-01-31T12:57:29;100709.75;;;4.94;100.00
62418;BME280;48456;54.242;10.280;2023-01-31T13:07:58;100706.28;;;4.95;100.00
62418;BME280;48456;54.242;10.280;2023-01-31T13:12:59;100698.47;;;4.97;100.00
62418;BME280;48456;54.242;10.280;2023-01-31T13:18:11;100721.28;;;5.04;100.00
62418;BME280;48456;54.242;10.280;2023-01-31T13:21:00;100723.09;;;5.08;100.00
62418;BME280;48456;54.242;10.280;2023-01-31T13:23:26;100717.81;;;5.06;100.00
62418;BME280;48456;54.242;10.280;2023-01-31T13:25:58;100714.41;;;5.09;100.00
62418;BME280;48456;54.242;10.280;2023-01-31T13:28:28;100720.56;;;5.13;100.00
62418;BME280;48456;54.242;10.280;2023-01-31T13:30:56;100738.19;;;5.20;100.00
62418;BME280;48456;54.242;10.280;2023-01-31T13:33:40;100747.88;;;5.24;100.00
62418;BME280;48456;54.242;10.280;2023-01-31T13:38:45;100765.44;;;5.31;100.00
62418;BME280;48456;54.242;10.280;2023-01-31T13:41:16;100775.94;;;5.31;100.00
62418;BME280;48456;54.242;10.280;2023-01-31T13:43:45;100774.22;;;5.32;100.00
62418;BME280;48456;54.242;10.280;2023-01-31T13:46:12;100786.50;;;5.35;100.00
62418;BME280;48456;54.242;10.280;2023-01-31T13:48:40;100790.00;;;5.35;100.00
62418;BME280;48456;54.242;10.280;2023-01-31T13:51:21;100799.59;;;5.35;100.00
62418;BME280;48456;54.242;10.280;2023-01-31T13:53:51;100798.72;;;5.32;100.00
62418;BME280;48456;54.242;10.280;2023-01-31T13:56:23;100786.44;;;5.31;100.00
62418;BME280;48456;54.242;10.280;2023-01-31T13:58:51;100783.75;;;5.27;100.00
62418;BME280;48456;54.242;10.280;2023-01-31T14:01:20;100806.56;;;5.31;100.00
62418;BME280;48456;54.242;10.280;2023-01-31T14:09:24;100810.97;;;5.33;100.00
62418;BME280;48456;54.242;10.280;2023-01-31T14:11:51;100802.19;;;5.33;100.00
62418;BME280;48456;54.242;10.280;2023-01-31T14:14:19;100788.13;;;5.28;100.00
62418;BME280;48456;54.242;10.280;2023-01-31T14:16:47;100808.31;;;5.32;100.00
62418;BME280;48456;54.242;10.280;2023-01-31T14:21:54;100795.94;;;5.25;100.00
62418;BME280;48456;54.242;10.280;2023-01-31T14:27:18;100759.88;;;5.11;100.00